Time;durP1;ratioP1;P1;durP2;ratioP2;P2;SDS_P1;SDS_P2;PMS_P1;PMS_P2;Temp;Humidity;BMP_temperature;BMP_pressure;BME280_temperature;BME280_humidity;BME280_pressure;Samples;Min_cycle;Max_cycle;Signal;HPM_P1;HPM_P2
2022/10/10 00:01:14;;;;;;;6.78;6.45;;;14.60;99.90;;;;;;4136810;28;20064;-57
2022/10/10 00:03:35;;;;;;;6.13;5.93;;;14.70;99.90;;;;;;4139508;28;20125;-57
2022/10/10 00:05:55;;;;;;;5.80;5.55;;;14.70;99.90;;;;;;4134820;28;20084;-57
2022/10/10 00:08:16;;;;;;;5.95;5.85;;;14.60;99.90;;;;;;4139640;28;20104;-56
2022/10/10 00:10:36;;;;;;;5.93;5.63;;;14.60;99.90;;;;;;4139488;28;20052;-57
2022/10/10 00:12:57;;;;;;;5.50;5.30;;;14.70;99.90;;;;;;4139055;28;20061;-56
2022/10/10 00:15:18;;;;;;;5.90;5.60;;;14.70;99.90;;;;;;4139179;28;20052;-58
2022/10/10 00:17:42;;;;;;;6.22;5.93;;;14.70;99.90;;;;;;4139268;28;20132;-57
2022/10/10 00:20:03;;;;;;;7.45;6.93;;;14.60;99.90;;;;;;4139338;28;20584;-57
2022/10/10 00:22:23;;;;;;;6.22;5.93;;;14.60;99.90;;;;;;4135173;28;20048;-57
2022/10/10 00:24:44;;;;;;;7.82;7.43;;;14.50;99.90;;;;;;4139669;28;20210;-56
2022/10/10 00:27:04;;;;;;;8.35;7.75;;;14.60;99.90;;;;;;4139120;28;20054;-58
2022/10/10 00:29:25;;;;;;;8.00;7.70;;;14.60;99.90;;;;;;4138973;28;20048;-57
2022/10/10 00:31:45;;;;;;;7.75;7.45;;;14.60;99.90;;;;;;4139325;28;20096;-57
2022/10/10 00:34:06;;;;;;;7.85;7.43;;;14.60;99.90;;;;;;4139021;28;20417;-58
2022/10/10 00:36:26;;;;;;;8.75;8.25;;;14.60;99.90;;;;;;4139076;28;20173;-57
2022/10/10 00:38:47;;;;;;;8.65;8.35;;;14.60;99.90;;;;;;4139133;28;20146;-57
2022/10/10 00:41:07;;;;;;;5.60;5.50;;;14.50;99.90;;;;;;4138645;28;20089;-58
2022/10/10 00:43:29;;;;;;;6.80;6.55;;;14.50;99.90;;;;;;4138918;28;20185;-57
2022/10/10 00:45:50;;;;;;;7.80;6.70;;;14.60;99.90;;;;;;4138784;28;20053;-56
2022/10/10 00:48:13;;;;;;;7.93;7.63;;;14.60;99.90;;;;;;4138636;28;20120;-57
2022/10/10 00:50:39;;;;;;;7.40;6.90;;;14.60;99.90;;;;;;4138845;28;20096;-57
2022/10/10 00:53:01;;;;;;;5.68;5.30;;;14.60;99.90;;;;;;4138692;28;20053;-57
2022/10/10 00:55:22;;;;;;;6.70;6.30;;;14.60;99.90;;;;;;4138662;28;20107;-57
2022/10/10 00:57:43;;;;;;;6.30;5.97;;;14.60;99.90;;;;;;4137873;28;20060;-57
2022/10/10 01:00:04;;;;;;;5.55;5.45;;;14.60;99.90;;;;;;4138531;28;20097;-58
2022/10/10 01:02:25;;;;;;;6.72;6.25;;;14.60;99.90;;;;;;4138743;28;20056;-57
2022/10/10 01:04:45;;;;;;;8.20;7.80;;;14.50;99.90;;;;;;4137854;28;20092;-58
2022/10/10 01:07:21;;;;;;;6.45;6.15;;;14.40;99.90;;;;;;4138342;28;20061;-57
2022/10/10 01:09:44;;;;;;;5.90;5.70;;;14.50;99.90;;;;;;4138417;28;20682;-57
2022/10/10 01:12:04;;;;;;;;;;;14.50;99.90;;;;;;4138861;28;20056;-57
2022/10/10 01:15:22;;;;;;;4.57;4.38;;;14.40;99.90;;;;;;4134834;28;19983;-58
2022/10/10 01:17:56;;;;;;;5.85;5.45;;;14.40;99.90;;;;;;4144140;28;20465;-57
2022/10/10 01:20:19;;;;;;;5.43;5.32;;;14.40;99.90;;;;;;4143304;28;20189;-57
2022/10/10 01:22:54;;;;;;;9.00;7.68;;;14.50;99.90;;;;;;4139874;28;20141;-58
2022/10/10 01:25:20;;;;;;;6.22;5.55;;;14.50;99.90;;;;;;4137715;28;20049;-57
2022/10/10 01:27:42;;;;;;;6.78;6.45;;;14.50;99.90;;;;;;4137989;28;20053;-57
2022/10/10 01:30:10;;;;;;;11.80;7.33;;;14.40;99.90;;;;;;4138138;28;20045;-58
2022/10/10 01:32:33;;;;;;;5.72;5.43;;;14.40;99.90;;;;;;4138087;28;20465;-57
2022/10/10 01:35:10;;;;;;;5.65;5.53;;;14.40;99.90;;;;;;4138318;28;20140;-57
2022/10/10 01:38:09;;;;;;;6.55;6.28;;;14.40;99.90;;;;;;4138276;28;20405;-57
2022/10/10 01:40:38;;;;;;;6.18;5.82;;;14.40;99.90;;;;;;4138267;28;20056;-57
2022/10/10 01:43:05;;;;;;;6.60;6.30;;;14.40;99.90;;;;;;4137993;28;20061;-57
2022/10/10 01:45:26;;;;;;;5.97;5.88;;;14.40;99.90;;;;;;4137941;28;20056;-57
2022/10/10 01:47:47;;;;;;;5.10;4.80;;;14.50;99.90;;;;;;4137891;28;20053;-57
2022/10/10 01:50:17;;;;;;;4.25;4.15;;;14.40;99.90;;;;;;4138217;28;20433;-57
2022/10/10 01:52:54;;;;;;;4.82;4.25;;;14.40;99.90;;;;;;4137817;28;20449;-57
2022/10/10 01:55:24;;;;;;;4.05;3.85;;;14.40;99.90;;;;;;4143637;28;20149;-57
2022/10/10 01:57:53;;;;;;;4.40;4.10;;;14.40;99.90;;;;;;4136829;28;20583;-57
2022/10/10 02:00:15;;;;;;;4.85;4.55;;;14.40;99.90;;;;;;4137843;28;20145;-57
2022/10/10 02:03:01;;;;;;;5.28;5.18;;;14.30;99.90;;;;;;4137329;28;20056;-57
2022/10/10 02:05:40;;;;;;;5.20;4.97;;;14.40;99.90;;;;;;4137513;28;20109;-57
2022/10/10 02:08:30;;;;;;;7.70;7.45;;;14.40;99.90;;;;;;4137454;28;20053;-58
2022/10/10 02:10:59;;;;;;;6.93;6.63;;;14.40;99.90;;;;;;4137462;28;20468;-57
2022/10/10 02:13:22;;;;;;;7.55;7.15;;;14.40;99.90;;;;;;4137239;28;20057;-58
2022/10/10 02:15:47;;;;;;;6.63;6.35;;;14.40;99.90;;;;;;4137222;28;20053;-56
2022/10/10 02:18:09;;;;;;;7.00;6.68;;;14.40;99.90;;;;;;4133144;28;20413;-57
2022/10/10 02:20:30;;;;;;;6.38;6.18;;;14.30;99.90;;;;;;4137477;28;20052;-57
2022/10/10 02:22:52;;;;;;;6.03;5.65;;;14.30;99.90;;;;;;4137623;28;20053;-58
2022/10/10 02:25:13;;;;;;;5.30;5.10;;;14.30;99.90;;;;;;4135944;28;20053;-57
2022/10/10 02:28:06;;;;;;;5.43;5.32;;;14.30;99.90;;;;;;4137084;28;20076;-57
2022/10/10 02:30:27;;;;;;;4.75;4.32;;;14.30;99.90;;;;;;4137197;28;20048;-57
2022/10/10 02:32:57;;;;;;;4.63;4.53;;;14.40;99.90;;;;;;4136882;28;20413;-57
2022/10/10 02:35:23;;;;;;;6.88;6.60;;;14.30;99.90;;;;;;4137085;28;20113;-57
2022/10/10 02:37:45;;;;;;;7.03;6.63;;;14.30;99.90;;;;;;4137352;28;20143;-58
2022/10/10 02:40:07;;;;;;;6.43;6.15;;;14.30;99.90;;;;;;4137256;28;20060;-59
2022/10/10 02:42:28;;;;;;;9.50;8.70;;;14.30;99.90;;;;;;4137086;28;20095;-58
2022/10/10 02:44:50;;;;;;;8.48;8.20;;;14.30;99.90;;;;;;4136324;28;20438;-59
2022/10/10 02:47:11;;;;;;;8.40;7.68;;;14.20;99.90;;;;;;4137677;28;20104;-59
2022/10/10 02:49:33;;;;;;;7.30;7.05;;;14.30;99.90;;;;;;4136196;28;20085;-59
2022/10/10 02:51:53;;;;;;;6.20;6.00;;;14.30;99.90;;;;;;4137181;28;20579;-59
2022/10/10 02:54:14;;;;;;;7.18;6.55;;;14.20;99.90;;;;;;4136793;28;20416;-59
2022/10/10 02:56:35;;;;;;;5.85;5.55;;;14.20;99.90;;;;;;4136805;28;20134;-59
2022/10/10 02:58:56;;;;;;;5.97;5.68;;;14.20;99.90;;;;;;4137112;28;20061;-57
2022/10/10 03:01:17;;;;;;;6.32;6.22;;;14.20;99.90;;;;;;4136663;28;20084;-58
2022/10/10 03:03:37;;;;;;;6.85;6.38;;;14.20;99.90;;;;;;4136980;28;20108;-58
2022/10/10 03:05:58;;;;;;;5.47;5.38;;;14.20;99.90;;;;;;4132727;28;20061;-57
2022/10/10 03:08:19;;;;;;;5.68;5.57;;;14.10;99.90;;;;;;4133294;28;20053;-58
2022/10/10 03:10:39;;;;;;;5.85;5.75;;;14.10;99.90;;;;;;4136613;28;20135;-57
2022/10/10 03:13:00;;;;;;;6.22;5.78;;;14.10;99.90;;;;;;4136734;28;20487;-58
2022/10/10 03:15:20;;;;;;;6.60;6.20;;;14.10;99.90;;;;;;4136203;28;20061;-58
2022/10/10 03:17:41;;;;;;;6.75;6.28;;;14.20;99.90;;;;;;4136237;28;20538;-58
2022/10/10 03:20:02;;;;;;;6.53;6.30;;;14.10;99.90;;;;;;4136075;28;20433;-57
2022/10/10 03:22:23;;;;;;;7.22;6.85;;;14.10;99.90;;;;;;4136435;28;20065;-57
2022/10/10 03:24:43;;;;;;;8.23;7.78;;;14.10;99.90;;;;;;4133452;28;20074;-58
2022/10/10 03:27:04;;;;;;;6.78;6.57;;;14.10;99.90;;;;;;4136775;28;20048;-58
2022/10/10 03:29:25;;;;;;;6.57;6.47;;;14.10;99.90;;;;;;4136843;28;20127;-56
2022/10/10 03:31:46;;;;;;;9.27;8.48;;;14.00;99.90;;;;;;4136268;28;20049;-58
2022/10/10 03:34:06;;;;;;;7.63;7.15;;;14.10;99.90;;;;;;4136480;28;20112;-58
2022/10/10 03:36:27;;;;;;;6.63;6.43;;;14.00;99.90;;;;;;4139508;28;20077;-57
2022/10/10 03:38:48;;;;;;;7.00;6.70;;;14.00;99.90;;;;;;4135980;28;20583;-57
2022/10/10 03:41:08;;;;;;;6.28;5.90;;;14.00;99.90;;;;;;4139705;28;20104;-58
2022/10/10 03:43:29;;;;;;;5.93;5.72;;;14.00;99.90;;;;;;4139989;28;20602;-58
2022/10/10 03:45:49;;;;;;;6.20;5.82;;;14.00;99.90;;;;;;4140094;28;20061;-57
2022/10/10 03:48:10;;;;;;;6.82;6.25;;;14.00;99.90;;;;;;4139954;28;20053;-58
2022/10/10 03:50:31;;;;;;;7.32;7.03;;;14.00;99.90;;;;;;4139139;28;20088;-57
2022/10/10 03:52:51;;;;;;;6.82;6.45;;;14.00;99.90;;;;;;4139241;28;20486;-57
2022/10/10 03:55:12;;;;;;;7.50;7.05;;;14.00;99.90;;;;;;4139795;28;20564;-57
2022/10/10 03:57:34;;;;;;;7.57;7.13;;;14.00;99.90;;;;;;4139623;28;20405;-58
2022/10/10 03:59:54;;;;;;;8.13;7.35;;;14.00;99.90;;;;;;4139101;28;20124;-57
2022/10/10 04:02:15;;;;;;;7.10;6.78;;;13.90;99.90;;;;;;4139028;28;20056;-57
2022/10/10 04:04:35;;;;;;;6.78;6.38;;;13.90;99.90;;;;;;4139661;28;20588;-57
2022/10/10 04:06:56;;;;;;;8.18;7.25;;;14.00;99.90;;;;;;4139410;28;20077;-57
2022/10/10 04:09:16;;;;;;;7.13;6.57;;;13.90;99.90;;;;;;4138593;28;20053;-57
2022/10/10 04:11:39;;;;;;;7.45;7.20;;;13.90;99.90;;;;;;4139408;28;20133;-57
2022/10/10 04:13:59;;;;;;;6.50;6.20;;;13.90;99.90;;;;;;4139327;28;20056;-57
2022/10/10 04:16:20;;;;;;;6.32;6.03;;;13.90;99.90;;;;;;4139516;28;20437;-57
2022/10/10 04:18:40;;;;;;;5.82;5.63;;;13.80;99.90;;;;;;4138937;28;20068;-57
2022/10/10 04:21:05;;;;;;;7.28;6.60;;;13.80;99.90;;;;;;4138570;28;20604;-57
2022/10/10 04:23:25;;;;;;;6.35;6.15;;;13.80;99.90;;;;;;4139102;28;20515;-57
2022/10/10 04:25:51;;;;;;;8.10;7.80;;;13.80;99.90;;;;;;4135440;28;20100;-57
2022/10/10 04:28:13;;;;;;;6.70;6.35;;;13.80;99.90;;;;;;4139615;28;20057;-57
2022/10/10 04:30:34;;;;;;;6.65;6.20;;;13.90;99.90;;;;;;4139162;28;20052;-58
2022/10/10 04:32:54;;;;;;;6.18;6.03;;;13.90;99.90;;;;;;4138366;28;20125;-57
2022/10/10 04:35:15;;;;;;;6.43;6.32;;;13.90;99.90;;;;;;4138927;28;20084;-56
2022/10/10 04:37:36;;;;;;;6.97;6.72;;;13.80;99.90;;;;;;4138684;28;20061;-58
2022/10/10 04:39:56;;;;;;;6.60;6.20;;;13.80;99.90;;;;;;4138017;28;20138;-57
2022/10/10 04:42:17;;;;;;;7.15;6.78;;;13.70;99.90;;;;;;4138959;28;20061;-57
2022/10/10 04:44:37;;;;;;;6.35;5.90;;;13.70;99.90;;;;;;4138774;28;20057;-57
2022/10/10 04:46:58;;;;;;;8.23;7.68;;;13.60;99.90;;;;;;4138536;28;20049;-58
2022/10/10 04:49:19;;;;;;;6.38;6.18;;;13.60;99.90;;;;;;4138910;28;20078;-58
2022/10/10 04:51:39;;;;;;;6.78;6.53;;;13.60;99.90;;;;;;4134559;28;20077;-57
2022/10/10 04:53:59;;;;;;;6.95;6.75;;;13.60;99.90;;;;;;4139127;28;20057;-57
2022/10/10 04:56:20;;;;;;;6.63;6.32;;;13.70;99.90;;;;;;4138905;28;20152;-57
2022/10/10 04:58:40;;;;;;;6.32;6.13;;;13.70;99.90;;;;;;4138507;28;20083;-57
2022/10/10 05:01:02;;;;;;;6.75;6.45;;;13.60;99.90;;;;;;4138573;28;20572;-57
2022/10/10 05:03:24;;;;;;;7.18;6.65;;;13.50;99.90;;;;;;4138704;28;20073;-58
2022/10/10 05:05:45;;;;;;;8.32;7.78;;;13.60;99.90;;;;;;4133925;28;20191;-58
2022/10/10 05:08:06;;;;;;;7.30;6.88;;;13.50;99.90;;;;;;4138883;28;20577;-58
2022/10/10 05:10:26;;;;;;;6.40;6.00;;;13.50;99.90;;;;;;4138495;28;20089;-57
2022/10/10 05:12:47;;;;;;;6.43;6.10;;;13.60;99.90;;;;;;4138180;28;20165;-57
2022/10/10 05:15:09;;;;;;;8.82;6.72;;;13.60;99.90;;;;;;4138404;28;20052;-58
2022/10/10 05:17:29;;;;;;;6.28;5.97;;;13.60;99.90;;;;;;4138514;28;20559;-57
2022/10/10 05:19:50;;;;;;;7.28;6.93;;;13.50;99.90;;;;;;4137887;28;20057;-57
2022/10/10 05:22:10;;;;;;;5.50;5.40;;;13.60;99.90;;;;;;4138033;28;20494;-57
2022/10/10 05:24:31;;;;;;;5.93;5.63;;;13.60;99.90;;;;;;4134280;28;20642;-56
2022/10/10 05:26:52;;;;;;;6.78;6.57;;;13.60;99.90;;;;;;4134180;28;20062;-56
2022/10/10 05:29:12;;;;;;;5.97;5.70;;;13.60;99.90;;;;;;4138397;28;20135;-56
2022/10/10 05:31:33;;;;;;;5.70;5.50;;;13.60;99.90;;;;;;4138018;28;20470;-56
2022/10/10 05:33:54;;;;;;;5.75;5.55;;;13.60;99.90;;;;;;4137803;28;20057;-56
2022/10/10 05:36:15;;;;;;;6.32;5.90;;;13.70;99.90;;;;;;4138009;28;20601;-57
2022/10/10 05:38:36;;;;;;;6.25;6.05;;;13.70;99.90;;;;;;4134375;28;20092;-57
2022/10/10 05:40:57;;;;;;;7.90;6.65;;;13.60;99.90;;;;;;4138008;28;20076;-56
2022/10/10 05:43:18;;;;;;;6.50;6.22;;;13.60;99.90;;;;;;4137346;28;20108;-57
2022/10/10 05:45:39;;;;;;;5.70;5.25;;;13.60;99.90;;;;;;4134138;28;20065;-56
2022/10/10 05:47:59;;;;;;;5.40;5.20;;;13.60;99.90;;;;;;4137770;28;20533;-57
2022/10/10 05:50:35;;;;;;;6.32;5.93;;;13.60;99.90;;;;;;4137213;28;20057;-56
2022/10/10 05:52:56;;;;;;;6.68;6.53;;;13.60;99.90;;;;;;4137364;28;20049;-57
2022/10/10 05:55:17;;;;;;;6.88;6.78;;;13.60;99.90;;;;;;4138095;28;20053;-57
2022/10/10 05:57:37;;;;;;;7.55;7.35;;;13.70;99.90;;;;;;4137911;28;20056;-57
2022/10/10 05:59:58;;;;;;;6.95;6.68;;;13.60;99.90;;;;;;4136789;28;20056;-56
2022/10/10 06:02:18;;;;;;;6.90;6.65;;;13.60;99.90;;;;;;4137702;28;20112;-56
2022/10/10 06:04:40;;;;;;;6.55;6.28;;;13.60;99.90;;;;;;4133235;28;20547;-56
2022/10/10 06:07:00;;;;;;;7.22;7.03;;;13.60;99.90;;;;;;4135647;28;20053;-56
2022/10/10 06:09:21;;;;;;;6.38;6.18;;;13.60;99.90;;;;;;4137437;28;20213;-56
2022/10/10 06:11:42;;;;;;;7.72;7.32;;;13.60;99.90;;;;;;4137787;28;20057;-57
2022/10/10 06:14:02;;;;;;;7.10;6.90;;;13.60;99.90;;;;;;4137256;28;20053;-56
2022/10/10 06:16:25;;;;;;;8.05;7.47;;;13.60;99.90;;;;;;4137347;28;20061;-57
2022/10/10 06:18:45;;;;;;;7.57;7.05;;;13.70;99.90;;;;;;4137393;28;20524;-56
2022/10/10 06:21:07;;;;;;;7.40;6.85;;;13.60;99.90;;;;;;4137001;28;20065;-57
2022/10/10 06:23:27;;;;;;;7.30;6.97;;;13.60;99.90;;;;;;4137447;28;20482;-57
2022/10/10 06:25:50;;;;;;;7.32;7.13;;;13.60;99.90;;;;;;4137256;28;20129;-56
2022/10/10 06:28:11;;;;;;;8.30;7.20;;;13.50;99.90;;;;;;4137666;28;20101;-56
2022/10/10 06:30:33;;;;;;;8.07;7.68;;;13.60;99.90;;;;;;4133111;28;20053;-57
2022/10/10 06:32:54;;;;;;;9.05;8.68;;;13.60;99.90;;;;;;4136847;28;20112;-57
2022/10/10 06:35:16;;;;;;;7.20;7.10;;;13.60;99.90;;;;;;4136989;28;20135;-56
2022/10/10 06:37:36;;;;;;;7.80;7.30;;;13.60;99.90;;;;;;4137050;28;20056;-57
2022/10/10 06:39:57;;;;;;;9.68;9.15;;;13.60;99.90;;;;;;4136841;28;20507;-57
2022/10/10 06:42:17;;;;;;;7.38;7.00;;;13.60;99.90;;;;;;4136935;28;20585;-57
2022/10/10 06:44:38;;;;;;;9.77;8.98;;;13.70;99.90;;;;;;4136794;28;20440;-57
2022/10/10 06:46:58;;;;;;;9.48;8.18;;;13.80;99.90;;;;;;4137215;28;20093;-56
2022/10/10 06:49:19;;;;;;;8.63;8.02;;;14.00;99.90;;;;;;4137007;28;20060;-56
2022/10/10 06:51:40;;;;;;;8.25;7.70;;;14.00;99.90;;;;;;4138127;28;20465;-56
2022/10/10 06:54:00;;;;;;;7.15;6.68;;;14.10;99.90;;;;;;4137084;28;20056;-56
2022/10/10 06:56:21;;;;;;;6.72;6.53;;;14.10;99.90;;;;;;4133624;28;20581;-56
2022/10/10 06:58:48;;;;;;;7.47;6.90;;;14.30;99.90;;;;;;4136669;28;20052;-56
2022/10/10 07:01:09;;;;;;;6.85;6.60;;;14.30;99.90;;;;;;4136438;28;20049;-56
2022/10/10 07:03:30;;;;;;;7.57;7.07;;;14.40;99.90;;;;;;4135454;28;20124;-56
2022/10/10 07:05:53;;;;;;;6.18;5.78;;;14.50;99.90;;;;;;4132387;28;20081;-56
2022/10/10 07:08:13;;;;;;;6.88;6.47;;;14.50;99.90;;;;;;4136826;28;20056;-56
2022/10/10 07:10:34;;;;;;;5.70;5.50;;;14.60;99.90;;;;;;4136227;28;20143;-56
2022/10/10 07:12:54;;;;;;;6.70;6.20;;;14.60;99.90;;;;;;4132515;28;20483;-56
2022/10/10 07:15:15;;;;;;;6.88;6.15;;;14.70;99.90;;;;;;4133578;28;20340;-56
2022/10/10 07:17:37;;;;;;;7.00;6.53;;;14.70;99.90;;;;;;4134391;28;20092;-56
2022/10/10 07:19:57;;;;;;;5.97;5.68;;;14.70;99.90;;;;;;4136127;28;20065;-57
2022/10/10 07:22:19;;;;;;;5.53;5.22;;;14.70;99.90;;;;;;4136466;28;20077;-57
2022/10/10 07:24:40;;;;;;;5.90;5.53;;;14.70;99.90;;;;;;4136521;28;20068;-57
2022/10/10 07:27:00;;;;;;;6.72;5.95;;;14.80;99.90;;;;;;4136358;28;20076;-56
2022/10/10 07:29:29;;;;;;;6.47;6.18;;;14.80;99.90;;;;;;4136248;28;20054;-56
2022/10/10 07:31:50;;;;;;;6.47;6.17;;;14.80;99.90;;;;;;4136494;28;20112;-56
2022/10/10 07:34:10;;;;;;;6.63;6.40;;;14.90;99.90;;;;;;4136833;28;20327;-56
2022/10/10 07:36:31;;;;;;;5.63;5.35;;;14.80;99.90;;;;;;4134572;28;20058;-56
2022/10/10 07:38:53;;;;;;;5.63;5.53;;;14.90;99.90;;;;;;4136340;28;20084;-56
2022/10/10 07:41:14;;;;;;;6.40;6.13;;;15.00;99.90;;;;;;4132735;28;20138;-56
2022/10/10 07:43:36;;;;;;;5.57;5.35;;;15.10;99.90;;;;;;4136408;28;20579;-56
2022/10/10 07:45:56;;;;;;;5.75;5.45;;;15.10;99.90;;;;;;4136646;28;20057;-56
2022/10/10 07:48:17;;;;;;;5.32;5.10;;;15.30;99.90;;;;;;4136733;28;20057;-56
2022/10/10 07:50:42;;;;;;;3.97;3.88;;;15.40;99.90;;;;;;4132398;28;20413;-56
2022/10/10 07:53:03;;;;;;;4.18;4.07;;;15.30;99.90;;;;;;4136749;28;20053;-57
2022/10/10 07:55:23;;;;;;;4.60;4.50;;;15.50;99.90;;;;;;4136348;28;20528;-56
2022/10/10 07:57:44;;;;;;;4.45;4.18;;;15.70;99.90;;;;;;4133269;28;20128;-56
2022/10/10 08:00:10;;;;;;;5.68;3.53;;;15.90;99.90;;;;;;4136622;28;20053;-56
2022/10/10 08:02:30;;;;;;;4.20;3.90;;;16.10;99.90;;;;;;4136599;28;20485;-57
2022/10/10 08:04:51;;;;;;;3.72;3.63;;;16.30;99.90;;;;;;4136177;28;20155;-56
2022/10/10 08:07:12;;;;;;;5.28;3.85;;;16.30;99.90;;;;;;4136653;28;20606;-56
2022/10/10 08:09:32;;;;;;;4.25;3.63;;;16.50;99.90;;;;;;4136660;28;20049;-56
2022/10/10 08:11:52;;;;;;;3.80;3.70;;;16.60;99.90;;;;;;4136324;28;20532;-56
2022/10/10 08:14:13;;;;;;;4.18;3.80;;;16.70;99.90;;;;;;4136578;28;20112;-57
2022/10/10 08:16:34;;;;;;;3.95;3.85;;;16.70;99.90;;;;;;4135911;28;20057;-57
2022/10/10 08:18:54;;;;;;;3.42;3.13;;;16.80;99.90;;;;;;4135951;28;20072;-55
2022/10/10 08:21:15;;;;;;;4.28;3.83;;;17.00;99.90;;;;;;4136245;28;20088;-56
2022/10/10 08:23:35;;;;;;;4.50;4.30;;;17.10;99.90;;;;;;4139124;28;20137;-57
2022/10/10 08:26:01;;;;;;;3.60;3.40;;;17.30;99.90;;;;;;4139213;28;20415;-57
2022/10/10 08:28:21;;;;;;;3.78;3.67;;;17.20;99.90;;;;;;4138944;28;20053;-57
2022/10/10 08:30:42;;;;;;;3.40;3.20;;;17.30;99.90;;;;;;4139171;28;20135;-57
2022/10/10 08:33:03;;;;;;;3.17;2.97;;;17.50;99.90;;;;;;4138335;28;20049;-57
2022/10/10 08:35:24;;;;;;;4.90;3.70;;;17.60;99.90;;;;;;4138652;28;20077;-57
2022/10/10 08:37:44;;;;;;;3.95;3.50;;;17.60;99.90;;;;;;4138915;28;20430;-57
2022/10/10 08:40:06;;;;;;;3.95;3.45;;;17.50;99.90;;;;;;4139154;28;20100;-58
2022/10/10 08:42:39;;;;;;;3.58;3.22;;;17.60;99.90;;;;;;4139207;28;20421;-57
2022/10/10 08:45:15;;;;;;;4.38;4.10;;;17.60;99.90;;;;;;4138746;28;20065;-57
2022/10/10 08:48:01;;;;;;;3.47;3.38;;;17.70;99.90;;;;;;4138817;28;20069;-57
2022/10/10 08:50:32;;;;;;;4.38;4.15;;;17.60;99.90;;;;;;4138629;28;20088;-57
2022/10/10 08:53:31;;;;;;;3.30;3.20;;;17.70;99.90;;;;;;4138883;28;20052;-57
2022/10/10 08:55:53;;;;;;;3.75;3.55;;;17.80;99.90;;;;;;4138749;28;20160;-57
2022/10/10 08:58:22;;;;;;;3.80;3.60;;;18.10;99.90;;;;;;4138447;28;20056;-57
2022/10/10 09:01:13;;;;;;;4.70;4.50;;;18.20;99.90;;;;;;4138710;28;20056;-57
2022/10/10 09:03:53;;;;;;;3.67;3.42;;;18.50;99.90;;;;;;4138932;28;20156;-57
2022/10/10 09:06:44;;;;;;;2.90;2.80;;;18.50;99.90;;;;;;4138014;28;20577;-57
2022/10/10 09:09:29;;;;;;;3.40;3.20;;;18.40;99.90;;;;;;4138527;28;20556;-56
2022/10/10 09:12:26;;;;;;;3.13;3.03;;;18.60;99.90;;;;;;4140542;28;20085;-57
2022/10/10 09:15:20;;;;;;;3.28;3.03;;;18.70;99.90;;;;;;4138980;28;20056;-56
2022/10/10 09:18:05;;;;;;;2.65;2.45;;;18.90;99.90;;;;;;4138071;28;20100;-56
2022/10/10 09:20:37;;;;;;;2.85;2.75;;;18.90;99.90;;;;;;4138361;28;20060;-57
2022/10/10 09:23:04;;;;;;;3.33;3.10;;;19.10;99.90;;;;;;4138380;28;20076;-57
2022/10/10 09:25:54;;;;;;;2.97;2.78;;;19.00;99.90;;;;;;4138299;28;20092;-57
2022/10/10 09:28:30;;;;;;;2.15;1.63;;;19.00;99.90;;;;;;4137290;28;20057;-56
2022/10/10 09:30:55;;;;;;;2.83;2.63;;;18.90;99.90;;;;;;4137975;28;20053;-57
2022/10/10 09:33:26;;;;;;;4.47;2.42;;;19.20;99.90;;;;;;4137423;28;20129;-57
2022/10/10 09:35:48;;;;;;;3.22;2.97;;;19.30;99.90;;;;;;4143635;28;20053;-56
2022/10/10 09:38:28;;;;;;;3.35;2.95;;;19.40;99.90;;;;;;4138086;28;20457;-56
2022/10/10 09:40:57;;;;;;;2.75;2.55;;;19.50;99.90;;;;;;4138282;28;20061;-57
2022/10/10 09:43:19;;;;;;;2.38;2.28;;;19.60;99.90;;;;;;4137861;28;20056;-57
2022/10/10 09:45:45;;;;;;;2.95;2.85;;;19.70;99.90;;;;;;4137900;28;20095;-57
2022/10/10 09:48:09;;;;;;;3.08;2.97;;;19.50;99.90;;;;;;4136086;28;20107;-58
2022/10/10 09:50:30;;;;;;;4.60;4.40;;;19.30;99.90;;;;;;4137939;28;20129;-57
2022/10/10 09:52:51;;;;;;;2.53;2.30;;;19.40;99.90;;;;;;4137861;28;20165;-57
2022/10/10 09:55:27;;;;;;;2.20;2.08;;;19.50;99.90;;;;;;4138249;28;20053;-57
2022/10/10 09:57:52;;;;;;;3.67;2.17;;;19.70;99.90;;;;;;4138420;28;20052;-56
2022/10/10 10:00:34;;;;;;;4.35;2.42;;;19.80;99.90;;;;;;4138172;28;20521;-58
2022/10/10 10:03:16;;;;;;;2.25;1.88;;;19.80;99.90;;;;;;4139938;28;20077;-57
2022/10/10 10:05:37;;;;;;;2.45;2.08;;;19.90;99.90;;;;;;4137307;28;20508;-57
2022/10/10 10:07:57;;;;;;;1.88;1.75;;;20.10;99.90;;;;;;4137646;28;20052;-57
2022/10/10 10:10:25;;;;;;;1.92;1.90;;;20.30;99.90;;;;;;4135355;28;20129;-56
2022/10/10 10:12:46;;;;;;;1.75;1.65;;;20.20;99.90;;;;;;4136992;28;20097;-58
2022/10/10 10:15:21;;;;;;;2.15;2.05;;;20.30;99.90;;;;;;4138141;28;20125;-57
2022/10/10 10:17:42;;;;;;;2.03;1.88;;;20.40;99.90;;;;;;4134803;28;20055;-56
2022/10/10 10:20:03;;;;;;;2.40;1.85;;;20.70;99.90;;;;;;4133224;28;20437;-57
2022/10/10 10:22:38;;;;;;;3.10;1.77;;;20.80;99.90;;;;;;4138039;28;20057;-58
2022/10/10 10:25:31;;;;;;;2.05;1.95;;;21.00;99.90;;;;;;4137582;28;20060;-56
2022/10/10 10:27:52;;;;;;;3.40;1.88;;;20.80;99.90;;;;;;4135600;28;20060;-57
2022/10/10 10:30:24;;;;;;;1.73;1.60;;;21.20;99.90;;;;;;4137781;28;20532;-56
2022/10/10 10:33:21;;;;;;;3.08;1.73;;;21.40;99.90;;;;;;4149640;28;20048;-57
2022/10/10 10:36:19;;;;;;;1.48;1.38;;;21.40;99.90;;;;;;4137494;28;20536;-58
2022/10/10 10:38:44;;;;;;;4.45;1.40;;;21.70;99.90;;;;;;4133467;28;20579;-58
2022/10/10 10:41:26;;;;;;;1.58;1.58;;;21.80;99.90;;;;;;4137463;28;20053;-57
2022/10/10 10:44:18;;;;;;;1.80;1.50;;;22.00;99.90;;;;;;4136167;28;20129;-58
2022/10/10 10:47:00;;;;;;;1.40;1.33;;;22.10;99.90;;;;;;4136201;28;20044;-58
2022/10/10 10:49:28;;;;;;;2.05;1.95;;;22.50;99.90;;;;;;4137206;28;20061;-58
2022/10/10 10:52:09;;;;;;;2.75;1.33;;;23.00;99.90;;;;;;4137427;28;20052;-57
2022/10/10 10:55:03;;;;;;;1.30;1.30;;;23.20;99.90;;;;;;4142620;28;20131;-57
2022/10/10 10:57:49;;;;;;;2.22;1.33;;;22.80;99.90;;;;;;4136738;28;20103;-58
2022/10/10 11:00:44;;;;;;;1.55;1.38;;;22.80;99.90;;;;;;4137232;28;20092;-56
2022/10/10 11:03:31;;;;;;;1.30;1.30;;;22.70;99.90;;;;;;4136894;28;20697;-57
2022/10/10 11:06:40;;;;;;;2.70;1.40;;;22.70;99.90;;;;;;4135294;28;20713;-57
2022/10/10 11:09:30;;;;;;;1.85;1.60;;;22.70;99.90;;;;;;4135798;28;20116;-57
2022/10/10 11:12:09;;;;;;;1.40;1.30;;;22.50;99.90;;;;;;4135482;28;20565;-57
2022/10/10 11:14:42;;;;;;;2.13;1.50;;;22.70;99.90;;;;;;4135477;28;20092;-57
2022/10/10 11:17:27;;;;;;;2.25;1.40;;;22.70;99.90;;;;;;4134015;28;20061;-57
2022/10/10 11:20:19;;;;;;;1.50;1.38;;;22.80;99.90;;;;;;4136033;28;20145;-57
2022/10/10 11:22:59;;;;;;;10.27;1.40;;;23.00;99.90;;;;;;4138865;28;20402;-58
2022/10/10 11:25:46;;;;;;;1.17;1.17;;;22.90;99.90;;;;;;4136406;28;20061;-57
2022/10/10 11:28:28;;;;;;;1.63;1.55;;;22.80;99.90;;;;;;4136610;28;20053;-58
2022/10/10 11:31:00;;;;;;;1.25;1.15;;;22.70;99.90;;;;;;4137381;28;20100;-57
2022/10/10 11:33:25;;;;;;;1.95;1.23;;;22.90;99.90;;;;;;4136330;28;20432;-58
2022/10/10 11:35:58;;;;;;;1.77;1.67;;;22.80;99.90;;;;;;4136719;28;20417;-57
2022/10/10 11:38:23;;;;;;;2.00;1.15;;;22.80;99.90;;;;;;4132034;28;20069;-57
2022/10/10 11:41:01;;;;;;;2.05;1.20;;;22.60;99.90;;;;;;4137009;28;20101;-58
2022/10/10 11:43:45;;;;;;;2.50;1.30;;;22.70;99.90;;;;;;4135281;28;20141;-58
2022/10/10 11:46:38;;;;;;;1.13;1.10;;;22.10;99.90;;;;;;4135196;28;20535;-57
2022/10/10 11:49:11;;;;;;;1.40;1.30;;;21.80;99.90;;;;;;4136801;28;20105;-57
2022/10/10 11:52:12;;;;;;;2.72;2.08;;;21.70;99.90;;;;;;4136537;28;20168;-58
2022/10/10 11:55:18;;;;;;;1.83;1.17;;;21.80;99.90;;;;;;4136570;28;20169;-58
2022/10/10 11:57:52;;;;;;;1.35;1.25;;;22.00;99.90;;;;;;4139345;28;20092;-57
2022/10/10 12:00:15;;;;;;;1.35;1.25;;;21.80;99.90;;;;;;4139620;28;20060;-57
2022/10/10 12:02:39;;;;;;;1.30;1.30;;;21.40;99.90;;;;;;4139709;28;20061;-57
2022/10/10 12:04:59;;;;;;;1.20;1.10;;;21.10;99.90;;;;;;4138767;28;20052;-57
2022/10/10 12:07:29;;;;;;;1.90;1.80;;;21.00;99.90;;;;;;4139658;28;20057;-56
2022/10/10 12:09:58;;;;;;;5.25;1.33;;;20.90;99.90;;;;;;4139531;28;20134;-57
2022/10/10 12:12:23;;;;;;;1.98;1.45;;;20.80;99.90;;;;;;4139208;28;20057;-57
2022/10/10 12:14:52;;;;;;;2.92;1.70;;;20.70;99.90;;;;;;4139409;28;20472;-57
2022/10/10 12:17:20;;;;;;;2.20;2.10;;;20.70;99.90;;;;;;4138761;28;20425;-56
2022/10/10 12:19:41;;;;;;;2.08;1.70;;;20.70;99.90;;;;;;4139202;28;20064;-57
2022/10/10 12:22:04;;;;;;;5.18;2.35;;;20.50;99.90;;;;;;4139121;28;20113;-57
2022/10/10 12:24:32;;;;;;;2.25;2.08;;;20.60;99.90;;;;;;4139437;28;20133;-57
2022/10/10 12:26:56;;;;;;;1.55;1.52;;;20.50;99.90;;;;;;4139195;28;20131;-57
2022/10/10 12:29:41;;;;;;;2.08;1.83;;;20.20;99.90;;;;;;4139180;28;20624;-56
2022/10/10 12:32:14;;;;;;;3.83;1.60;;;20.10;99.90;;;;;;4139257;28;20555;-57
2022/10/10 12:35:01;;;;;;;2.13;1.88;;;20.10;99.90;;;;;;4139154;28;20073;-56
2022/10/10 12:37:29;;;;;;;4.15;3.20;;;20.00;99.90;;;;;;4139160;28;20132;-57
2022/10/10 12:40:05;;;;;;;1.95;1.40;;;20.10;99.90;;;;;;4138835;28;20176;-56
2022/10/10 12:42:36;;;;;;;2.75;1.80;;;20.00;99.90;;;;;;4139006;28;20092;-58
2022/10/10 12:44:58;;;;;;;2.20;2.10;;;20.00;99.90;;;;;;4138467;28;20053;-58